createdAt,value
2019-03-21T00:00:26.272Z,5.06
2019-03-21T00:05:35.564Z,5.29
2019-03-21T00:11:17.755Z,4.92
2019-03-21T00:16:37.067Z,5.17
2019-03-21T00:21:44.328Z,5.47
2019-03-21T00:26:56.172Z,5.56
2019-03-21T00:32:05.420Z,5.31
2019-03-21T00:37:13.731Z,5.58
2019-03-21T00:42:20.556Z,5.45
2019-03-21T00:47:27.524Z,5.67
2019-03-21T00:52:36.811Z,5.81
2019-03-21T00:57:44.576Z,6.24
2019-03-21T01:02:55.937Z,5.62
2019-03-21T01:08:09.323Z,5.81
2019-03-21T01:13:17.654Z,5.83
2019-03-21T01:18:26.991Z,5.96
2019-03-21T01:23:40.540Z,5.83
2019-03-21T01:29:06.268Z,6.03
2019-03-21T01:34:14.707Z,6.13
2019-03-21T01:39:23.324Z,6.58
2019-03-21T01:44:41.070Z,6.45
2019-03-21T01:49:44.103Z,6.58
2019-03-21T01:54:53.255Z,6.37
2019-03-21T02:00:00.862Z,6.86
2019-03-21T02:05:14.079Z,6.63
2019-03-21T02:10:23.117Z,6.46
2019-03-21T02:15:33.173Z,6.58
2019-03-21T02:20:43.212Z,6.82
2019-03-21T02:25:52.368Z,7.18
2019-03-21T02:31:02.229Z,6.80
2019-03-21T02:36:10.341Z,6.94
2019-03-21T02:41:18.415Z,6.68
2019-03-21T02:46:27.397Z,6.67
2019-03-21T02:51:36.713Z,6.74
2019-03-21T02:56:51.819Z,6.90
2019-03-21T03:02:01.814Z,7.05
2019-03-21T03:07:19.857Z,7.14
2019-03-21T03:12:36.553Z,6.98
2019-03-21T03:17:47.863Z,6.86
2019-03-21T03:23:04.403Z,7.34
2019-03-21T03:28:20.702Z,6.78
2019-03-21T03:33:29.157Z,6.63
2019-03-21T03:38:36.387Z,6.60
2019-03-21T03:43:47.375Z,6.51
2019-03-21T03:48:56.225Z,6.40
2019-03-21T03:54:06.153Z,6.64
2019-03-21T03:59:14.429Z,6.48
2019-03-21T04:04:33.358Z,6.31
2019-03-21T04:09:42.345Z,6.38
2019-03-21T04:14:53.115Z,6.35
2019-03-21T04:20:01.977Z,5.87
2019-03-21T04:25:12.586Z,5.95
2019-03-21T04:30:20.570Z,5.20
2019-03-21T04:35:30.198Z,5.63
2019-03-21T04:40:44.108Z,5.81
2019-03-21T04:46:02.929Z,5.45
2019-03-21T04:51:06.357Z,5.50
2019-03-21T04:56:13.968Z,5.84
2019-03-21T05:01:22.910Z,5.50
2019-03-21T05:06:38.467Z,5.28
2019-03-21T05:11:47.209Z,5.11
2019-03-21T05:16:56.263Z,5.29
2019-03-21T05:22:05.831Z,5.08
2019-03-21T05:27:15.313Z,5.00
2019-03-21T05:32:22.745Z,4.82
2019-03-21T05:37:34.565Z,5.00
2019-03-21T05:42:45.089Z,5.12
2019-03-21T05:47:51.900Z,4.47
2019-03-21T05:53:06.762Z,4.95
2019-03-21T05:59:12.304Z,4.87
2019-03-21T06:04:39.957Z,5.77
2019-03-21T06:09:48.687Z,5.48
2019-03-21T06:15:04.299Z,6.45
2019-03-21T06:20:43.077Z,7.87
2019-03-21T06:26:32.521Z,7.28
2019-03-21T06:31:39.459Z,7.88
2019-03-21T06:36:50.051Z,7.67
2019-03-21T06:41:59.849Z,8.21
2019-03-21T06:47:07.079Z,8.91
2019-03-21T06:52:14.211Z,9.45
2019-03-21T06:57:21.687Z,9.78
2019-03-21T07:02:31.152Z,10.55
2019-03-21T07:07:38.339Z,10.55
2019-03-21T07:12:45.937Z,10.50
2019-03-21T07:17:53.241Z,11.18
2019-03-21T07:23:00.104Z,11.71
2019-03-21T07:28:13.321Z,11.97
2019-03-21T07:33:22.829Z,12.02
2019-03-21T07:38:33.911Z,12.33
2019-03-21T07:43:42.299Z,12.17
2019-03-21T07:48:50.488Z,12.80
2019-03-21T07:54:00.476Z,13.13
2019-03-21T07:59:10.569Z,13.44
2019-03-21T08:04:17.681Z,13.57
2019-03-21T08:09:28.359Z,13.81
2019-03-21T08:14:39.195Z,13.93
2019-03-21T08:19:48.551Z,14.54
2019-03-21T08:24:58.694Z,15.16
2019-03-21T08:30:07.902Z,15.46
2019-03-21T08:35:18.988Z,15.51
2019-03-21T08:40:27.969Z,14.99
2019-03-21T08:45:35.233Z,14.35
2019-03-21T08:50:44.167Z,14.22
2019-03-21T08:55:54.686Z,13.43
2019-03-21T09:01:01.690Z,13.63
2019-03-21T09:06:11.122Z,14.17
2019-03-21T09:11:18.418Z,13.57
2019-03-21T09:16:26.460Z,13.87
2019-03-21T09:21:38.598Z,14.62
2019-03-21T09:26:45.482Z,15.08
2019-03-21T09:31:52.243Z,14.88
2019-03-21T09:37:03.989Z,14.70
2019-03-21T09:42:10.241Z,14.31
2019-03-21T09:52:24.975Z,15.03
2019-03-21T09:57:31.971Z,13.72
2019-03-21T10:02:39.222Z,14.44
2019-03-21T10:07:46.287Z,14.44
2019-03-21T10:12:55.433Z,13.78
2019-03-21T10:18:01.810Z,14.13
2019-03-21T10:23:09.870Z,13.82
2019-03-21T10:28:16.734Z,13.57
2019-03-21T10:33:28.384Z,13.88
2019-03-21T10:38:36.023Z,13.97
2019-03-21T10:43:47.579Z,14.48
2019-03-21T10:48:54.640Z,14.39
2019-03-21T10:54:01.520Z,14.48
2019-03-21T10:59:08.885Z,14.99
2019-03-21T11:04:17.141Z,14.63
2019-03-21T11:09:27.313Z,13.92
2019-03-21T11:14:36.027Z,14.20
2019-03-21T11:19:44.357Z,14.19
2019-03-21T11:24:53.769Z,13.92
2019-03-21T11:30:00.833Z,15.50
2019-03-21T11:35:07.783Z,15.14
2019-03-21T11:40:20.581Z,14.96
2019-03-21T11:45:29.797Z,14.09
2019-03-21T11:50:39.476Z,14.67
2019-03-21T11:55:49.817Z,14.47
2019-03-21T12:00:57.051Z,14.36
2019-03-21T12:06:06.844Z,14.97
2019-03-21T12:11:16.452Z,15.58
2019-03-21T12:16:24.876Z,15.00
2019-03-21T12:21:35.592Z,15.11
2019-03-21T12:26:42.303Z,15.27
2019-03-21T12:31:49.327Z,15.66
2019-03-21T12:36:56.063Z,15.93
2019-03-21T12:42:12.427Z,16.66
2019-03-21T12:47:30.853Z,15.68
2019-03-21T12:52:41.316Z,15.57
2019-03-21T12:57:47.432Z,16.05
2019-03-21T13:02:54.804Z,15.32
2019-03-21T13:08:06.589Z,15.76
2019-03-21T13:13:15.208Z,16.15
2019-03-21T13:18:22.112Z,16.03
2019-03-21T13:23:32.492Z,16.48
2019-03-21T13:28:45.151Z,16.59
2019-03-21T13:33:51.923Z,15.43
2019-03-21T13:38:58.931Z,16.59
2019-03-21T13:44:09.175Z,16.36
2019-03-21T13:49:20.178Z,16.53
2019-03-21T13:54:27.582Z,15.26
2019-03-21T13:59:34.800Z,15.39
2019-03-21T14:04:42.740Z,16.33
2019-03-21T14:09:51.593Z,15.59
2019-03-21T14:15:01.525Z,15.74
2019-03-21T14:20:11.840Z,16.62
2019-03-21T14:25:19.564Z,15.38
2019-03-21T14:30:27.124Z,15.78
2019-03-21T14:35:34.474Z,16.07
2019-03-21T14:40:42.654Z,15.41
2019-03-21T14:45:53.425Z,15.35
2019-03-21T14:51:05.529Z,16.23
2019-03-21T14:56:16.539Z,16.35
2019-03-21T15:01:23.953Z,16.71
2019-03-21T15:06:31.112Z,16.63
2019-03-21T15:11:42.535Z,15.51
2019-03-21T15:16:52.452Z,15.49
2019-03-21T15:22:03.704Z,16.35
2019-03-21T15:27:14.272Z,16.52
2019-03-21T15:32:25.181Z,15.97
2019-03-21T15:37:33.378Z,15.86
2019-03-21T15:42:43.327Z,16.41
2019-03-21T15:47:50.590Z,15.80
2019-03-21T15:52:58.661Z,15.32
2019-03-21T15:58:08.284Z,15.35
2019-03-21T16:03:21.178Z,15.36
2019-03-21T16:08:29.299Z,15.39
2019-03-21T16:13:47.563Z,14.86
2019-03-21T16:18:58.042Z,14.82
2019-03-21T16:24:05.869Z,14.81
2019-03-21T16:29:14.319Z,14.92
2019-03-21T16:34:21.592Z,14.80
2019-03-21T16:39:32.457Z,14.76
2019-03-21T16:44:39.669Z,14.49
2019-03-21T16:49:49.736Z,14.90
2019-03-21T16:55:00.945Z,14.69
2019-03-21T17:00:13.600Z,14.21
2019-03-21T17:05:22.328Z,14.33
2019-03-21T17:10:30.856Z,13.99
2019-03-21T17:15:42.778Z,14.28
2019-03-21T17:20:51.805Z,14.08
2019-03-21T17:26:00.348Z,13.93
2019-03-21T17:31:10.669Z,13.61
2019-03-21T17:36:22.623Z,13.53
2019-03-21T17:41:30.684Z,13.71
2019-03-21T17:46:38.685Z,13.55
2019-03-21T17:51:48.517Z,13.13
2019-03-21T17:56:56.836Z,13.29
2019-03-21T18:02:04.808Z,13.35
2019-03-21T18:07:16.679Z,12.86
2019-03-21T18:12:36.601Z,12.80
2019-03-21T18:17:47.353Z,12.69
2019-03-21T18:22:58.878Z,12.66
2019-03-21T18:28:09.097Z,12.49
2019-03-21T18:33:22.318Z,12.38
2019-03-21T18:38:35.923Z,12.09
2019-03-21T18:43:56.557Z,12.10
2019-03-21T18:49:08.907Z,12.07
2019-03-21T18:54:20.877Z,11.57
2019-03-21T18:59:32.138Z,11.53
2019-03-21T19:04:41.776Z,11.65
2019-03-21T19:09:51.237Z,11.62
2019-03-21T19:15:01.002Z,11.12
2019-03-21T19:20:13.127Z,11.46
2019-03-21T19:25:23.220Z,11.07
2019-03-21T19:30:31.073Z,10.99
2019-03-21T19:35:40.152Z,11.07
2019-03-21T19:40:52.364Z,11.03
2019-03-21T19:46:01.629Z,10.83
2019-03-21T19:51:11.293Z,10.71
2019-03-21T19:56:24.076Z,10.82
2019-03-21T20:01:33.667Z,10.69
2019-03-21T20:06:44.295Z,10.35
2019-03-21T20:11:53.916Z,10.36
2019-03-21T20:17:04.110Z,10.18
2019-03-21T20:22:13.650Z,10.02
2019-03-21T20:27:25.288Z,9.97
2019-03-21T20:32:38.913Z,10.09
2019-03-21T20:37:55.059Z,9.88
2019-03-21T20:43:05.831Z,9.72
2019-03-21T20:48:31.786Z,9.55
2019-03-21T20:53:39.954Z,9.63
2019-03-21T20:58:53.540Z,9.43
2019-03-21T21:04:05.144Z,9.43
2019-03-21T21:09:15.011Z,9.35
2019-03-21T21:14:26.470Z,9.16
2019-03-21T21:19:35.419Z,9.12
2019-03-21T21:24:50.784Z,9.03
2019-03-21T21:29:54.240Z,9.04
2019-03-21T21:35:01.912Z,8.93
2019-03-21T21:40:14.096Z,8.90
2019-03-21T21:45:22.924Z,8.71
2019-03-21T21:50:31.663Z,8.60
2019-03-21T21:55:41.078Z,8.64
2019-03-21T22:00:51.281Z,8.62
2019-03-21T22:06:00.315Z,8.43
2019-03-21T22:11:11.287Z,8.21
2019-03-21T22:16:18.889Z,8.27
2019-03-21T22:21:29.476Z,8.18
2019-03-21T22:26:37.699Z,8.11
2019-03-21T22:31:46.906Z,7.99
2019-03-21T22:36:55.727Z,7.79
2019-03-21T22:42:04.905Z,7.93
2019-03-21T22:47:16.530Z,8.05
2019-03-21T22:52:24.190Z,7.92
2019-03-21T22:57:39.178Z,7.85
2019-03-21T23:02:50.616Z,7.86
2019-03-21T23:07:57.956Z,7.29
2019-03-21T23:13:08.109Z,7.54
2019-03-21T23:18:16.716Z,7.52
2019-03-21T23:23:25.157Z,7.57
2019-03-21T23:28:35.821Z,7.38
2019-03-21T23:33:45.264Z,7.25
2019-03-21T23:38:54.643Z,7.36
2019-03-21T23:44:02.226Z,7.25
2019-03-21T23:49:19.810Z,7.23
2019-03-21T23:59:41.423Z,7.31
